Time;durP1;ratioP1;P1;durP2;ratioP2;P2;SDS_P1;SDS_P2;PMS_P1;PMS_P2;Temp;Humidity;BMP_temperature;BMP_pressure;BME280_temperature;BME280_humidity;BME280_pressure;Samples;Min_cycle;Max_cycle;Signal;HPM_P1;HPM_P2
2022/06/30 00:00:34;;;;;;;10.80;4.75;;;;;;;15.09;100.00;98083.81;5126865;28;20034;-71
2022/06/30 00:02:59;;;;;;;8.93;4.88;;;;;;;15.12;100.00;98087.19;5126658;28;20091;-71
2022/06/30 00:05:25;;;;;;;7.20;3.95;;;;;;;15.06;100.00;98084.81;5126735;28;20251;-71
2022/06/30 00:07:50;;;;;;;8.85;4.82;;;;;;;15.07;100.00;98086.53;5126546;28;20028;-71
2022/06/30 00:10:16;;;;;;;12.07;5.70;;;;;;;14.93;100.00;98088.09;5127015;28;20032;-71
2022/06/30 00:12:42;;;;;;;8.70;5.38;;;;;;;15.00;100.00;98087.75;5126493;28;20027;-71
2022/06/30 00:15:08;;;;;;;10.85;4.97;;;;;;;14.90;100.00;98093.53;5126616;28;20020;-71
2022/06/30 00:17:33;;;;;;;6.00;3.80;;;;;;;14.90;100.00;98089.09;5126557;28;20370;-71
2022/06/30 00:19:59;;;;;;;13.52;5.40;;;;;;;14.93;100.00;98088.97;5126344;28;20023;-71
2022/06/30 00:22:25;;;;;;;6.82;4.50;;;;;;;14.83;100.00;98092.06;5126680;28;20046;-71
2022/06/30 00:24:51;;;;;;;9.35;5.05;;;;;;;14.81;100.00;98088.66;5126061;28;20350;-71
2022/06/30 00:27:17;;;;;;;6.60;4.20;;;;;;;14.85;100.00;98084.94;5126378;28;20088;-71
2022/06/30 00:29:42;;;;;;;12.32;5.15;;;;;;;14.77;100.00;98079.09;5126175;28;20257;-71
2022/06/30 00:32:08;;;;;;;9.43;5.05;;;;;;;14.80;100.00;98086.91;5126194;28;20026;-71
2022/06/30 00:34:34;;;;;;;14.15;5.70;;;;;;;14.88;100.00;98084.81;5126162;28;20022;-71
2022/06/30 00:37:00;;;;;;;10.65;4.95;;;;;;;14.87;100.00;98077.75;5126154;28;20019;-71
2022/06/30 00:39:26;;;;;;;7.57;5.05;;;;;;;14.85;100.00;98084.94;5126128;28;20020;-71
2022/06/30 00:41:51;;;;;;;8.60;4.47;;;;;;;14.83;100.00;98081.47;5125989;28;20023;-71
2022/06/30 00:44:16;;;;;;;9.80;4.97;;;;;;;14.76;100.00;98080.03;5125981;28;20034;-71
2022/06/30 00:46:42;;;;;;;7.32;4.65;;;;;;;14.79;100.00;98079.91;5125786;28;20024;-71
2022/06/30 00:49:08;;;;;;;6.10;3.83;;;;;;;14.67;100.00;98072.50;5125982;28;20019;-71
2022/06/30 00:51:34;;;;;;;8.80;3.88;;;;;;;14.64;100.00;98076.16;5125912;28;20223;-71
2022/06/30 00:54:03;;;;;;;6.45;4.15;;;;;;;14.49;100.00;98068.03;5125695;28;20051;-71
2022/06/30 00:56:29;;;;;;;13.65;4.72;;;;;;;14.47;100.00;98067.22;5125774;28;20023;-71
2022/06/30 00:59:02;;;;;;;9.50;4.38;;;;;;;14.44;100.00;98068.22;5125615;28;20088;-71
2022/06/30 01:01:27;;;;;;;10.88;4.15;;;;;;;14.46;100.00;98068.16;5125930;28;20342;-71
2022/06/30 01:03:55;;;;;;;6.20;4.43;;;;;;;14.50;100.00;98069.75;5125710;28;20015;-71
2022/06/30 01:06:22;;;;;;;12.88;4.30;;;;;;;14.37;100.00;98073.84;5125524;28;20024;-71
2022/06/30 01:08:47;;;;;;;9.88;4.35;;;;;;;14.39;100.00;98070.22;5125494;28;20020;-71
2022/06/30 01:13:57;;;;;;;8.10;4.60;;;;;;;14.33;100.00;98069.63;5125027;28;20022;-71
2022/06/30 01:16:22;;;;;;;6.88;4.28;;;;;;;14.30;100.00;98069.75;5125387;28;20218;-71
2022/06/30 01:18:48;;;;;;;9.57;5.20;;;;;;;14.33;100.00;98069.63;5125345;28;20015;-71
2022/06/30 01:21:14;;;;;;;6.43;4.45;;;;;;;14.35;100.00;98062.47;5125155;28;20015;-71
2022/06/30 01:23:39;;;;;;;9.65;5.00;;;;;;;14.23;100.00;98065.63;5125229;28;20015;-71
2022/06/30 01:26:05;;;;;;;10.60;4.88;;;;;;;14.17;100.00;98068.50;5124889;28;20040;-71
2022/06/30 01:28:30;;;;;;;13.05;4.85;;;;;;;14.15;100.00;98062.44;5125137;28;20216;-71
2022/06/30 01:30:56;;;;;;;14.15;4.90;;;;;;;14.19;100.00;98067.53;5124906;28;20030;-71
2022/06/30 01:33:22;;;;;;;8.82;4.65;;;;;;;14.11;100.00;98063.50;5126057;27;20034;-71
2022/06/30 01:35:48;;;;;;;6.10;4.18;;;;;;;14.13;100.00;98061.63;5145466;27;20209;-71
2022/06/30 01:38:13;;;;;;;7.25;4.93;;;;;;;14.11;100.00;98063.50;5137202;27;20031;-71
2022/06/30 01:40:39;;;;;;;9.52;4.93;;;;;;;14.15;100.00;98065.94;5124875;28;20028;-71
2022/06/30 01:43:06;;;;;;;7.30;4.50;;;;;;;14.14;100.00;98063.38;5124695;28;20023;-71
2022/06/30 01:45:32;;;;;;;6.80;4.72;;;;;;;14.12;100.00;98065.22;5124926;28;20038;-71
2022/06/30 01:47:58;;;;;;;11.20;4.20;;;;;;;13.96;100.00;98054.41;5124897;28;20026;-71
2022/06/30 01:50:27;;;;;;;7.03;4.47;;;;;;;14.02;100.00;98063.88;5124806;28;20031;-71
2022/06/30 01:52:52;;;;;;;10.55;4.10;;;;;;;13.93;100.00;98059.84;5124389;28;20027;-71
2022/06/30 01:55:18;;;;;;;7.88;3.83;;;;;;;13.87;100.00;98065.38;5124185;28;20376;-71
2022/06/30 01:57:43;;;;;;;10.80;4.13;;;;;;;13.92;100.00;98059.91;5124683;28;20330;-71
2022/06/30 02:00:12;;;;;;;5.70;4.30;;;;;;;13.91;100.00;98050.22;5124594;28;20024;-71
2022/06/30 02:02:38;;;;;;;7.43;4.07;;;;;;;13.91;100.00;98050.22;5124518;28;20433;-71
2022/06/30 02:05:04;;;;;;;7.43;4.32;;;;;;;13.82;100.00;98046.19;5124477;28;20049;-71
2022/06/30 02:07:29;;;;;;;6.25;3.78;;;;;;;13.80;100.00;98044.53;5124464;28;20126;-71
2022/06/30 02:09:55;;;;;;;5.55;4.13;;;;;;;13.76;100.00;98037.66;5124446;28;20019;-71
2022/06/30 02:15:08;;;;;;;7.90;3.92;;;;;;;13.67;100.00;98038.03;5124439;28;20091;-71
2022/06/30 02:17:34;;;;;;;9.00;3.30;;;;;;;13.56;100.00;98053.44;5124277;28;20037;-71
2022/06/30 02:20:00;;;;;;;5.38;4.05;;;;;;;13.60;100.00;98068.28;5124363;28;20091;-71
2022/06/30 02:22:26;;;;;;;8.30;4.63;;;;;;;13.70;100.00;98067.00;5124266;28;20091;-71
2022/06/30 02:24:51;;;;;;;7.15;4.15;;;;;;;13.72;100.00;98062.47;5124100;28;20235;-71
2022/06/30 02:27:20;;;;;;;6.47;4.50;;;;;;;13.71;100.00;98052.84;5124255;28;20248;-71
2022/06/30 02:29:45;;;;;;;7.03;4.32;;;;;;;13.66;100.00;98054.78;5124130;28;20038;-71
2022/06/30 02:32:11;;;;;;;9.68;3.95;;;;;;;13.61;100.00;98056.78;5124428;28;20031;-71
2022/06/30 02:34:36;;;;;;;7.90;3.60;;;;;;;13.66;100.00;98054.78;5123871;28;20031;-71
2022/06/30 02:37:02;;;;;;;5.93;3.35;;;;;;;13.67;100.00;98051.25;5124257;28;20192;-71
2022/06/30 02:39:27;;;;;;;11.55;3.80;;;;;;;13.63;100.00;98044.34;5124206;28;20069;-71
2022/06/30 02:41:53;;;;;;;4.78;3.00;;;;;;;13.61;100.00;98046.22;5123893;28;20023;-71
2022/06/30 02:44:18;;;;;;;5.35;3.67;;;;;;;13.45;100.00;98039.81;5124177;28;20023;-71
2022/06/30 02:46:43;;;;;;;6.38;3.65;;;;;;;13.45;100.00;98045.09;5124203;28;20049;-71
2022/06/30 02:49:09;;;;;;;4.55;2.97;;;;;;;13.35;100.00;98041.09;5123945;28;20027;-71
2022/06/30 02:51:34;;;;;;;9.05;3.63;;;;;;;13.32;100.00;98049.16;5123999;28;20023;-71
2022/06/30 02:54:00;;;;;;;10.85;3.95;;;;;;;13.33;100.00;98040.28;5123940;28;20019;-71
2022/06/30 02:56:25;;;;;;;6.15;3.17;;;;;;;13.36;100.00;98042.81;5124057;28;20045;-71
2022/06/30 02:58:52;;;;;;;8.23;3.72;;;;;;;13.32;100.00;98044.72;5124005;28;20061;-71
2022/06/30 03:01:18;;;;;;;7.68;3.53;;;;;;;13.20;100.00;98044.34;5123814;28;20323;-71
2022/06/30 03:03:43;;;;;;;5.90;4.10;;;;;;;13.21;100.00;98046.06;5123967;28;20024;-71
2022/06/30 03:06:09;;;;;;;9.27;3.78;;;;;;;13.24;100.00;98045.94;5123694;28;20019;-71
2022/06/30 03:08:34;;;;;;;14.40;4.03;;;;;;;13.11;100.00;98039.41;5126797;28;20023;-71
2022/06/30 03:10:59;;;;;;;6.68;3.60;;;;;;;13.18;100.00;98044.41;5127692;28;20023;-71
2022/06/30 03:13:25;;;;;;;5.63;3.90;;;;;;;13.10;100.00;98048.28;5127864;28;20099;-71
2022/06/30 03:15:51;;;;;;;6.25;4.03;;;;;;;13.13;100.00;98043.72;5127763;28;20016;-71
2022/06/30 03:18:16;;;;;;;6.70;3.90;;;;;;;13.10;100.00;98049.09;5127577;28;20027;-71
2022/06/30 03:20:42;;;;;;;5.68;3.75;;;;;;;13.20;100.00;98039.06;5127850;28;20077;-71
2022/06/30 03:23:07;;;;;;;4.68;3.35;;;;;;;13.17;100.00;98045.34;5127528;28;20092;-71
2022/06/30 03:25:33;;;;;;;8.52;3.75;;;;;;;13.15;100.00;98046.28;5127361;28;20032;-71
2022/06/30 03:27:59;;;;;;;4.53;3.00;;;;;;;13.12;100.00;98056.97;5127438;28;20023;-71
2022/06/30 03:30:24;;;;;;;5.88;3.38;;;;;;;13.09;100.00;98062.41;5127382;28;20020;-71
2022/06/30 03:32:49;;;;;;;15.48;4.00;;;;;;;12.97;100.00;98061.03;5127547;28;20065;-71
2022/06/30 03:35:15;;;;;;;5.28;3.60;;;;;;;12.95;100.00;98055.81;5127278;28;20019;-71
2022/06/30 03:37:40;;;;;;;5.20;3.88;;;;;;;12.89;100.00;98061.34;5127350;28;20019;-71
2022/06/30 03:40:06;;;;;;;6.20;3.90;;;;;;;12.85;100.00;98065.00;5127121;28;20068;-71
2022/06/30 03:42:32;;;;;;;7.47;4.30;;;;;;;12.90;100.00;98073.63;5127281;28;20143;-71
2022/06/30 03:44:57;;;;;;;4.22;3.10;;;;;;;12.96;100.00;98068.13;5127071;28;20365;-71
2022/06/30 03:47:23;;;;;;;10.77;4.10;;;;;;;13.00;100.00;98075.03;5127186;28;20019;-71
2022/06/30 03:49:48;;;;;;;8.10;4.05;;;;;;;12.89;100.00;98066.63;5127121;28;20027;-71
2022/06/30 03:52:13;;;;;;;4.30;3.33;;;;;;;12.95;100.00;98071.66;5126908;28;20031;-71
2022/06/30 03:54:39;;;;;;;7.50;4.13;;;;;;;12.96;100.00;98073.41;5127028;28;20027;-71
2022/06/30 03:57:04;;;;;;;10.23;4.50;;;;;;;13.00;100.00;98069.75;5126948;28;20024;-71
2022/06/30 03:59:30;;;;;;;6.40;4.28;;;;;;;13.06;100.00;98073.09;5126947;28;20020;-71
2022/06/30 04:01:55;;;;;;;8.73;4.38;;;;;;;13.09;100.00;98072.97;5126743;28;20027;-71
2022/06/30 04:04:21;;;;;;;10.50;4.25;;;;;;;13.09;100.00;98072.97;5126991;28;20036;-71
2022/06/30 04:06:46;;;;;;;5.32;3.75;;;;;;;13.14;100.00;98069.22;5126618;28;20020;-71
2022/06/30 04:09:12;;;;;;;9.13;4.10;;;;;;;13.15;100.00;98062.13;5126727;28;20027;-71
2022/06/30 04:11:37;;;;;;;6.40;4.07;;;;;;;13.10;100.00;98058.84;5126682;28;20023;-71
2022/06/30 04:14:02;;;;;;;9.20;4.22;;;;;;;13.14;100.00;98055.16;5126442;28;20051;-71
2022/06/30 04:16:28;;;;;;;6.97;4.57;;;;;;;13.25;100.00;98058.25;5126667;28;20056;-71
2022/06/30 04:18:54;;;;;;;5.60;4.00;;;;;;;13.33;100.00;98051.75;5126193;28;20087;-71
2022/06/30 04:21:19;;;;;;;7.70;4.20;;;;;;;13.42;100.00;98045.22;5126411;28;20056;-71
2022/06/30 04:23:45;;;;;;;10.65;4.28;;;;;;;13.41;100.00;98043.50;5126429;28;20378;-70
2022/06/30 04:26:10;;;;;;;9.85;4.30;;;;;;;13.36;100.00;98045.47;5126092;28;20100;-70
2022/06/30 04:28:36;;;;;;;13.80;4.38;;;;;;;13.41;100.00;98040.88;5126302;28;20208;-70
2022/06/30 04:33:45;;;;;;;7.38;3.67;;;;;;;13.76;100.00;98035.00;5126190;28;20042;-70
2022/06/30 04:36:11;;;;;;;10.93;3.55;;;;;;;14.89;100.00;98044.97;5126136;28;20315;-70
2022/06/30 04:38:36;;;;;;;4.68;3.13;;;;;;;16.47;96.78;98037.19;5125898;28;20023;-70
2022/06/30 04:43:45;;;;;;;3.40;2.53;;;;;;;18.84;80.86;98019.03;5126367;28;20081;-70
2022/06/30 04:46:11;;;;;;;13.20;3.17;;;;;;;19.71;76.97;98013.38;5126251;28;20327;-70
2022/06/30 04:48:36;;;;;;;3.78;2.20;;;;;;;20.27;74.74;98013.19;5126214;28;20023;-70
2022/06/30 04:51:02;;;;;;;15.30;2.95;;;;;;;20.77;71.79;98018.59;5126216;28;20219;-70
2022/06/30 04:53:27;;;;;;;4.82;2.53;;;;;;;20.88;70.82;98010.66;5126367;28;20061;-71
2022/06/30 04:55:53;;;;;;;3.03;2.17;;;;;;;21.26;70.96;98013.28;5126111;28;20042;-71
2022/06/30 04:58:18;;;;;;;5.85;2.47;;;;;;;21.67;69.23;98010.31;5126181;28;20023;-71
2022/06/30 05:00:44;;;;;;;11.20;2.78;;;;;;;22.04;68.73;97998.59;5126018;28;20342;-71
2022/06/30 05:03:09;;;;;;;4.45;2.10;;;;;;;22.27;67.54;98003.09;5125975;28;20080;-71
2022/06/30 05:05:34;;;;;;;12.30;2.20;;;;;;;22.69;66.30;98007.84;5125826;28;20020;-71
2022/06/30 05:08:00;;;;;;;3.85;2.30;;;;;;;22.65;66.19;98011.75;5125910;28;20020;-71
2022/06/30 05:10:25;;;;;;;5.32;2.55;;;;;;;22.68;65.55;98011.47;5125908;28;20042;-71
2022/06/30 05:12:51;;;;;;;2.70;2.40;;;;;;;22.74;66.27;98016.38;5125785;28;20071;-71
2022/06/30 05:15:16;;;;;;;6.72;2.50;;;;;;;23.32;64.75;98013.53;5125738;28;20016;-71
2022/06/30 05:17:42;;;;;;;2.90;2.30;;;;;;;23.55;63.82;98008.97;5125612;28;20038;-71
2022/06/30 05:20:08;;;;;;;3.88;2.45;;;;;;;23.79;62.92;98018.56;5125703;28;20378;-71
2022/06/30 05:22:33;;;;;;;6.07;2.83;;;;;;;23.48;64.35;98003.28;5125870;28;20302;-71
2022/06/30 05:27:46;;;;;;;7.07;2.58;;;;;;;22.39;67.26;97999.44;5125445;28;20026;-71
2022/06/30 05:30:13;;;;;;;5.05;2.60;;;;;;;23.65;65.69;97996.50;5124767;28;20019;-71
2022/06/30 05:32:39;;;;;;;5.05;2.80;;;;;;;24.02;63.61;97996.06;5125412;28;20030;-71
2022/06/30 05:35:05;;;;;;;5.93;2.85;;;;;;;24.85;62.14;97995.16;5125407;28;20038;-71
2022/06/30 05:37:31;;;;;;;7.63;2.80;;;;;;;24.60;62.34;97998.22;5125275;28;20024;-71
2022/06/30 05:39:56;;;;;;;4.28;3.00;;;;;;;25.27;62.27;97999.47;5107063;28;20019;-71
2022/06/30 05:42:21;;;;;;;3.45;2.83;;;;;;;26.05;60.07;97999.59;5125301;28;20023;-71
2022/06/30 05:44:48;;;;;;;7.20;2.75;;;;;;;26.62;58.14;97998.75;5125097;28;20208;-71
2022/06/30 05:47:13;;;;;;;4.72;2.58;;;;;;;26.73;58.81;97996.75;5125147;28;20045;-71
2022/06/30 05:49:38;;;;;;;5.90;2.90;;;;;;;26.98;57.58;97989.84;5125110;28;20028;-71
2022/06/30 05:52:04;;;;;;;4.53;2.50;;;;;;;27.55;56.37;97992.34;5125054;28;20026;-71
2022/06/30 05:54:30;;;;;;;4.85;2.35;;;;;;;27.87;56.43;97995.47;5125042;28;20043;-71
2022/06/30 05:56:55;;;;;;;5.70;2.35;;;;;;;27.90;55.95;97995.16;5125064;28;20051;-71
2022/06/30 05:59:20;;;;;;;6.50;2.47;;;;;;;27.63;55.95;97986.19;5125155;28;20019;-71
2022/06/30 06:01:46;;;;;;;5.22;2.97;;;;;;;28.23;54.23;97986.41;5124907;28;20041;-71
2022/06/30 06:04:11;;;;;;;3.35;2.33;;;;;;;28.37;54.30;97999.38;5124878;28;20031;-71
2022/06/30 06:06:37;;;;;;;5.38;2.60;;;;;;;28.16;56.36;97996.13;5124774;28;20019;-71
2022/06/30 06:09:03;;;;;;;3.63;2.78;;;;;;;28.75;55.12;98000.91;5124823;28;20019;-71
2022/06/30 06:11:30;;;;;;;7.72;2.88;;;;;;;29.12;54.59;98002.41;5124774;28;20015;-71
2022/06/30 06:13:55;;;;;;;5.25;2.72;;;;;;;29.33;54.24;98001.16;5124695;28;20043;-71
2022/06/30 06:16:21;;;;;;;3.80;2.60;;;;;;;29.62;53.70;97991.69;5124755;28;20042;-71
2022/06/30 06:18:46;;;;;;;4.97;2.70;;;;;;;29.69;54.13;97989.16;5124647;28;20032;-71
2022/06/30 06:21:12;;;;;;;6.07;3.08;;;;;;;28.86;55.61;97990.66;5124657;28;20023;-71
2022/06/30 06:23:37;;;;;;;4.82;2.67;;;;;;;29.36;56.83;98003.53;5124598;28;20223;-71
2022/06/30 06:26:02;;;;;;;3.22;2.88;;;;;;;29.96;54.76;97997.88;5124375;28;20044;-71
2022/06/30 06:31:12;;;;;;;4.25;2.75;;;;;;;30.63;51.55;97999.53;5124542;28;20182;-71
2022/06/30 06:33:38;;;;;;;4.65;3.00;;;;;;;30.31;52.02;97997.63;5124742;28;20019;-71
2022/06/30 06:36:04;;;;;;;5.93;2.53;;;;;;;30.92;51.65;98002.63;5124485;28;20023;-71
2022/06/30 06:38:29;;;;;;;5.90;2.63;;;;;;;31.22;51.55;97988.28;5124420;28;20032;-71
2022/06/30 06:40:55;;;;;;;4.60;2.85;;;;;;;31.60;50.75;97984.78;5124761;28;20088;-71
2022/06/30 06:43:20;;;;;;;5.65;2.35;;;;;;;31.30;52.81;97984.72;5128720;28;20015;-71
2022/06/30 06:45:46;;;;;;;4.30;3.03;;;;;;;31.23;50.98;98000.00;5128589;28;20019;-71
2022/06/30 06:48:11;;;;;;;4.57;2.60;;;;;;;32.25;49.57;97999.78;5128845;28;20019;-71
2022/06/30 06:50:37;;;;;;;6.20;2.70;;;;;;;32.49;51.74;97996.09;5128589;28;20027;-71
2022/06/30 06:53:03;;;;;;;4.55;2.92;;;;;;;32.14;50.27;97992.03;5128572;28;20026;-71
2022/06/30 06:55:29;;;;;;;6.00;2.50;;;;;;;32.77;50.72;97995.34;5128724;28;20012;-71
2022/06/30 06:57:55;;;;;;;6.93;2.65;;;;;;;33.56;48.49;97996.66;5128492;28;20023;-71
2022/06/30 07:00:20;;;;;;;4.05;2.92;;;;;;;33.58;45.72;97989.09;5128464;28;20031;-71
2022/06/30 07:02:45;;;;;;;7.45;2.72;;;;;;;33.47;46.86;97993.13;5128347;28;20019;-71
2022/06/30 07:05:11;;;;;;;3.28;2.47;;;;;;;34.24;47.51;98002.59;5128180;28;20099;-71
2022/06/30 07:07:37;;;;;;;3.25;2.33;;;;;;;33.67;47.33;97988.81;5128301;28;20219;-71
2022/06/30 07:10:05;;;;;;;6.20;3.13;;;;;;;33.32;46.75;97984.09;5128226;28;20191;-71
2022/06/30 07:12:31;;;;;;;4.43;2.47;;;;;;;33.88;47.20;97983.44;5128189;28;20053;-72
2022/06/30 07:14:56;;;;;;;3.90;2.65;;;;;;;34.14;44.09;97986.50;5128139;28;20019;-72
2022/06/30 07:17:22;;;;;;;4.35;2.33;;;;;;;34.10;45.82;97984.34;5128098;28;20038;-72
2022/06/30 07:19:47;;;;;;;3.38;2.20;;;;;;;33.86;42.65;97979.19;5128092;28;20019;-72
2022/06/30 07:22:13;;;;;;;3.42;2.80;;;;;;;34.36;44.99;97995.59;5127949;28;20103;-72
2022/06/30 07:24:39;;;;;;;2.95;2.13;;;;;;;35.08;44.09;97991.66;5127892;28;20047;-72
2022/06/30 07:27:04;;;;;;;4.32;2.63;;;;;;;34.87;41.89;97989.81;5127829;28;20234;-72
2022/06/30 07:29:30;;;;;;;3.25;2.40;;;;;;;34.89;44.04;97993.22;5127933;28;20024;-72
2022/06/30 07:31:56;;;;;;;3.25;2.47;;;;;;;35.07;41.65;97989.13;5127704;28;20045;-72
2022/06/30 07:34:22;;;;;;;3.78;1.98;;;;;;;34.38;41.92;97988.91;5127735;28;20055;-72
2022/06/30 07:36:47;;;;;;;5.13;2.03;;;;;;;34.62;40.84;97988.53;5127706;28;20016;-72
2022/06/30 07:39:13;;;;;;;4.18;2.15;;;;;;;34.05;41.72;97989.53;5127630;28;20027;-72
2022/06/30 07:41:38;;;;;;;4.25;2.20;;;;;;;34.13;43.34;97989.44;5127572;28;20388;-72
2022/06/30 07:44:04;;;;;;;3.25;2.13;;;;;;;35.18;42.24;97994.06;5127508;28;20078;-72
2022/06/30 07:46:29;;;;;;;3.40;2.13;;;;;;;34.41;42.45;97993.13;5127442;28;20307;-72
2022/06/30 07:48:55;;;;;;;4.22;2.30;;;;;;;34.95;40.05;97997.03;5127516;28;20031;-72
2022/06/30 07:51:21;;;;;;;4.35;2.40;;;;;;;34.56;41.25;97996.66;5127545;28;20090;-72
2022/06/30 07:53:47;;;;;;;6.75;2.63;;;;;;;34.23;41.95;98000.91;5126545;28;20027;-72
2022/06/30 07:56:13;;;;;;;2.70;2.13;;;;;;;34.60;41.64;97998.78;5127264;28;20027;-72
2022/06/30 07:58:38;;;;;;;4.43;2.30;;;;;;;34.89;40.55;97997.81;5127264;28;20099;-72
2022/06/30 08:01:04;;;;;;;3.45;2.15;;;;;;;33.98;41.65;97983.16;5127277;28;20027;-72
2022/06/30 08:03:30;;;;;;;4.20;2.30;;;;;;;34.15;41.28;97987.34;5127196;28;20023;-72
2022/06/30 08:05:55;;;;;;;8.75;2.90;;;;;;;34.90;41.76;97994.06;5127049;28;20015;-72
2022/06/30 08:08:21;;;;;;;6.97;2.42;;;;;;;35.49;40.52;97989.06;5127032;28;20023;-72
2022/06/30 08:10:46;;;;;;;5.65;2.33;;;;;;;35.23;41.18;97989.69;5126990;28;20076;-72
2022/06/30 08:13:12;;;;;;;3.70;2.28;;;;;;;35.01;39.94;97984.47;5126976;28;20094;-72
2022/06/30 08:15:38;;;;;;;3.55;2.55;;;;;;;35.09;40.84;97987.91;5126958;28;20364;-71
2022/06/30 08:18:04;;;;;;;5.72;2.33;;;;;;;34.77;37.73;97977.50;5127162;28;20211;-72
2022/06/30 08:20:30;;;;;;;3.15;2.10;;;;;;;34.70;39.54;97976.59;5126810;28;20015;-72
2022/06/30 08:22:55;;;;;;;6.20;2.33;;;;;;;33.72;38.53;97972.69;5126780;28;20077;-72
2022/06/30 08:25:21;;;;;;;3.38;2.35;;;;;;;33.39;39.36;97974.16;5126658;28;20036;-72
2022/06/30 08:27:46;;;;;;;6.55;2.30;;;;;;;32.91;41.08;97969.19;5126645;28;20082;-72
2022/06/30 08:30:12;;;;;;;2.40;2.10;;;;;;;33.55;39.97;97963.03;5126671;28;20368;-72
2022/06/30 08:32:37;;;;;;;14.40;2.30;;;;;;;34.09;38.69;97966.25;5126551;28;20023;-72
2022/06/30 08:35:03;;;;;;;3.28;2.15;;;;;;;34.52;38.47;97973.50;5126613;28;20211;-72
2022/06/30 08:37:28;;;;;;;2.88;2.20;;;;;;;34.46;39.67;97969.66;5126778;28;20023;-72
2022/06/30 08:42:40;;;;;;;3.83;2.40;;;;;;;34.26;39.42;97946.69;5126442;28;20030;-72
2022/06/30 08:45:19;;;;;;;3.55;2.33;;;;;;;33.67;39.21;97955.22;5126271;28;20109;-72
2022/06/30 08:47:46;;;;;;;4.15;2.35;;;;;;;33.81;40.03;97946.13;5126567;28;20078;-72
2022/06/30 08:50:14;;;;;;;4.63;2.53;;;;;;;33.76;40.59;97949.47;5126237;28;20027;-72
2022/06/30 08:52:58;;;;;;;3.20;1.98;;;;;;;34.72;39.04;97955.38;5126225;28;20019;-72
2022/06/30 08:55:32;;;;;;;3.08;1.98;;;;;;;34.54;38.89;97949.50;5126213;28;20372;-72
2022/06/30 08:58:03;;;;;;;2.22;1.60;;;;;;;34.03;38.26;97961.56;5126056;28;20026;-72
2022/06/30 09:00:28;;;;;;;2.72;1.98;;;;;;;33.71;36.89;97941.00;5126116;28;20027;-72
2022/06/30 09:02:54;;;;;;;4.13;2.08;;;;;;;33.61;38.55;97942.31;5126054;28;20023;-72
2022/06/30 09:05:20;;;;;;;2.70;2.13;;;;;;;34.45;38.90;97939.78;5124911;28;20102;-72
2022/06/30 09:07:46;;;;;;;7.60;2.38;;;;;;;34.69;37.74;97947.56;5125925;28;20024;-72
2022/06/30 09:10:11;;;;;;;5.93;2.03;;;;;;;34.90;37.16;97947.56;5125887;28;20022;-72
2022/06/30 09:12:37;;;;;;;3.92;1.75;;;;;;;35.32;36.09;97943.84;5125887;28;20027;-72
2022/06/30 09:15:03;;;;;;;2.13;1.70;;;;;;;35.46;34.90;97941.00;5126016;28;20016;-72
2022/06/30 09:17:30;;;;;;;3.58;2.15;;;;;;;34.94;36.78;97935.19;5125771;28;20027;-72
2022/06/30 09:20:00;;;;;;;4.10;2.05;;;;;;;34.21;35.43;97940.13;5125926;28;20233;-72
2022/06/30 09:22:43;;;;;;;2.60;1.88;;;;;;;34.38;37.42;97933.38;5125686;28;20024;-71
2022/06/30 09:25:16;;;;;;;2.30;1.85;;;;;;;35.13;36.81;97939.94;5125382;28;20039;-71
2022/06/30 09:27:43;;;;;;;3.28;1.83;;;;;;;34.12;37.09;97933.94;5125431;28;20019;-71
2022/06/30 09:30:14;;;;;;;3.10;2.08;;;;;;;34.40;37.75;97931.31;5125474;28;20350;-71
2022/06/30 09:32:46;;;;;;;3.63;1.95;;;;;;;35.79;35.80;97939.28;5125485;28;20020;-71
2022/06/30 09:35:12;;;;;;;6.15;1.85;;;;;;;34.78;36.09;97935.44;5125416;28;20092;-71
2022/06/30 09:37:38;;;;;;;4.95;1.85;;;;;;;34.23;35.75;97940.78;5125595;28;20096;-71
2022/06/30 09:40:05;;;;;;;3.38;2.05;;;;;;;35.07;34.66;97946.22;5125252;28;20023;-71
2022/06/30 09:42:38;;;;;;;2.58;1.67;;;;;;;35.05;34.54;97945.56;5125272;28;20050;-71
2022/06/30 09:45:09;;;;;;;3.97;1.88;;;;;;;35.32;35.65;97944.69;5125386;28;20315;-71
2022/06/30 09:47:35;;;;;;;1.60;1.50;;;;;;;35.30;33.36;97941.31;5125130;28;20026;-71
2022/06/30 09:50:04;;;;;;;2.13;1.70;;;;;;;36.42;31.69;97944.41;5125084;28;20027;-71
2022/06/30 09:52:30;;;;;;;1.85;1.40;;;;;;;36.60;32.30;97946.53;5125139;28;20019;-71
2022/06/30 09:55:05;;;;;;;1.80;1.48;;;;;;;34.78;33.02;97940.91;5125074;28;20023;-71
2022/06/30 09:57:36;;;;;;;3.80;1.40;;;;;;;35.51;33.46;97944.00;5125244;28;20027;-71
2022/06/30 10:00:07;;;;;;;2.35;1.40;;;;;;;35.93;30.29;97932.84;5124907;28;20027;-71
2022/06/30 10:02:42;;;;;;;2.92;1.67;;;;;;;37.09;31.78;97941.47;5125141;28;20307;-71
2022/06/30 10:05:10;;;;;;;2.88;1.50;;;;;;;37.26;30.86;97942.72;5124826;28;20020;-71
2022/06/30 10:07:37;;;;;;;3.78;1.80;;;;;;;36.24;29.58;97924.06;5125083;28;20073;-72
2022/06/30 10:10:10;;;;;;;2.10;1.50;;;;;;;35.01;31.35;97918.81;5124775;28;20060;-71
2022/06/30 10:12:36;;;;;;;1.75;1.40;;;;;;;35.27;31.12;97914.34;5124752;28;20342;-71
2022/06/30 10:15:03;;;;;;;1.50;1.40;;;;;;;36.40;31.33;97924.56;5124731;28;20056;-71
2022/06/30 10:17:34;;;;;;;5.93;1.70;;;;;;;35.70;32.25;97920.50;5124349;28;20030;-71
2022/06/30 10:20:00;;;;;;;1.98;1.40;;;;;;;34.60;34.89;97926.88;5124678;28;20087;-71
2022/06/30 10:22:27;;;;;;;3.65;1.55;;;;;;;34.95;34.12;97920.44;5124652;28;20027;-71
2022/06/30 10:24:54;;;;;;;1.92;1.45;;;;;;;35.97;32.90;97917.66;5124365;28;20051;-71
2022/06/30 10:27:24;;;;;;;2.60;1.52;;;;;;;36.52;32.48;97928.38;5124009;28;20276;-71
2022/06/30 10:30:09;;;;;;;2.03;1.42;;;;;;;34.82;32.08;97907.50;5124605;28;20023;-71
2022/06/30 10:33:02;;;;;;;2.78;1.23;;;;;;;35.96;34.47;97918.72;5124774;28;20211;-71
2022/06/30 10:35:42;;;;;;;2.03;1.40;;;;;;;36.66;32.92;97919.09;5124510;28;20016;-71
2022/06/30 10:38:29;;;;;;;2.70;1.58;;;;;;;36.26;33.53;97916.50;5124483;28;20024;-71
2022/06/30 10:41:10;;;;;;;2.95;1.63;;;;;;;35.62;33.53;97907.81;5124490;28;20023;-71
2022/06/30 10:44:04;;;;;;;3.40;1.70;;;;;;;35.21;35.83;97906.97;5124630;28;20094;-71
2022/06/30 10:46:56;;;;;;;2.25;1.55;;;;;;;36.07;33.70;97907.19;5124254;28;20223;-71
2022/06/30 10:49:24;;;;;;;2.20;1.80;;;;;;;36.59;34.07;97907.28;5124280;28;20337;-71
2022/06/30 10:51:50;;;;;;;1.67;1.45;;;;;;;36.70;33.45;97895.66;5124355;28;20115;-71
2022/06/30 10:54:29;;;;;;;1.92;1.67;;;;;;;36.48;33.29;97899.66;5124320;28;20318;-71
2022/06/30 10:56:56;;;;;;;3.30;1.92;;;;;;;35.99;32.86;97892.81;5124295;28;20039;-72
2022/06/30 10:59:28;;;;;;;4.20;1.70;;;;;;;36.24;33.95;97886.53;5124366;28;20043;-72
2022/06/30 11:02:09;;;;;;;2.05;1.60;;;;;;;35.91;33.97;97869.22;5124320;28;20023;-72
2022/06/30 11:04:39;;;;;;;;;;;;;;;35.67;33.60;97877.94;5124900;28;20390;-72
2022/06/30 11:07:20;;;;;;;2.78;1.70;;;;;;;35.67;35.38;97872.47;5124222;28;20107;-72
2022/06/30 11:09:49;;;;;;;;;;;;;;;34.20;36.75;97853.75;5124616;28;20266;-72
2022/06/30 11:12:42;;;;;;;1.67;1.42;;;;;;;34.47;36.22;97856.53;5124416;28;20099;-72
2022/06/30 11:15:08;;;;;;;3.10;1.80;;;;;;;34.31;34.25;97850.47;5124039;28;20222;-72
2022/06/30 11:17:39;;;;;;;3.15;1.88;;;;;;;34.53;36.04;97849.44;5124089;28;20027;-72
2022/06/30 11:20:10;;;;;;;3.40;1.90;;;;;;;34.55;32.65;97842.72;5124092;28;20023;-72
2022/06/30 11:22:36;;;;;;;2.10;1.52;;;;;;;33.69;35.33;97835.75;5124070;28;20027;-72
2022/06/30 11:25:08;;;;;;;3.00;1.63;;;;;;;32.89;35.24;97832.19;5123895;28;20411;-72
2022/06/30 11:27:36;;;;;;;2.55;1.20;;;;;;;32.65;33.72;97825.09;5124010;28;20076;-72
2022/06/30 11:30:11;;;;;;;2.65;1.70;;;;;;;33.32;35.95;97833.19;5127521;28;20020;-72
2022/06/30 11:32:38;;;;;;;2.03;1.30;;;;;;;33.04;34.51;97822.97;5127724;28;20023;-72
2022/06/30 11:35:05;;;;;;;2.15;1.45;;;;;;;32.85;36.49;97819.97;5127757;28;20033;-72
2022/06/30 11:37:35;;;;;;;2.65;1.63;;;;;;;32.86;35.99;97814.31;5127688;28;20024;-72
2022/06/30 11:40:15;;;;;;;2.63;1.63;;;;;;;31.98;37.05;97812.44;5127684;28;20046;-72
2022/06/30 11:42:40;;;;;;;2.05;1.73;;;;;;;32.44;39.01;97814.09;5127598;28;20093;-72
2022/06/30 11:45:20;;;;;;;2.10;1.70;;;;;;;32.08;36.88;97807.56;5127524;28;20023;-72
2022/06/30 11:48:03;;;;;;;2.95;1.60;;;;;;;31.88;40.09;97806.41;5127734;28;20023;-72